createdAt,value
2017-06-12T00:00:05.416Z,25.2
2017-06-12T00:02:04.841Z,25.2
2017-06-12T00:04:05.762Z,25.1
2017-06-12T00:06:07.965Z,25.2
2017-06-12T00:08:05.198Z,25.1
2017-06-12T00:10:10.118Z,25.1
2017-06-12T00:12:07.375Z,25.1
2017-06-12T00:14:05.047Z,25.1
2017-06-12T00:16:05.170Z,25
2017-06-12T00:18:05.580Z,25.1
2017-06-12T00:20:05.422Z,25
2017-06-12T00:22:05.442Z,25
2017-06-12T00:24:05.208Z,25
2017-06-12T00:26:07.416Z,24.9
2017-06-12T00:28:05.223Z,24.9
2017-06-12T00:30:04.990Z,24.9
2017-06-12T00:32:05.293Z,24.9
2017-06-12T00:34:05.197Z,24.9
2017-06-12T00:36:05.128Z,24.9
2017-06-12T00:38:04.785Z,24.9
2017-06-12T00:40:05.843Z,25
2017-06-12T00:42:07.174Z,24.9
2017-06-12T00:44:04.845Z,24.9
2017-06-12T00:46:05.972Z,24.9
2017-06-12T00:48:04.660Z,24.9
2017-06-12T00:50:05.364Z,24.9
2017-06-12T00:52:05.222Z,24.9
2017-06-12T00:54:07.450Z,24.9
2017-06-12T00:56:15.225Z,24.8
2017-06-12T00:58:05.070Z,24.8
2017-06-12T01:00:04.793Z,24.9
2017-06-12T01:02:05.563Z,24.9
2017-06-12T01:04:04.992Z,24.8
2017-06-12T01:06:04.715Z,24.7
2017-06-12T01:08:05.094Z,24.7
2017-06-12T01:10:07.955Z,24.7
2017-06-12T01:12:04.632Z,24.7
2017-06-12T01:14:05.385Z,24.7
2017-06-12T01:16:05.124Z,24.7
2017-06-12T01:18:05.576Z,24.6
2017-06-12T01:20:05.295Z,24.6
2017-06-12T01:22:05.044Z,24.6
2017-06-12T01:24:04.796Z,24.6
2017-06-12T01:26:07.515Z,24.5
2017-06-12T01:28:10.420Z,24.5
2017-06-12T01:30:05.080Z,24.5
2017-06-12T01:32:04.739Z,24.5
2017-06-12T01:34:05.588Z,24.5
2017-06-12T01:36:05.328Z,24.5
2017-06-12T01:38:07.546Z,24.5
2017-06-12T01:40:05.411Z,24.5
2017-06-12T01:42:05.118Z,24.5
2017-06-12T01:44:07.410Z,24.5
2017-06-12T01:46:07.383Z,24.4
2017-06-12T01:48:05.689Z,24.5
2017-06-12T01:50:05.006Z,24.5
2017-06-12T01:52:04.868Z,24.5
2017-06-12T01:54:05.593Z,24.5
2017-06-12T01:56:05.438Z,24.5
2017-06-12T01:58:05.258Z,24.5
2017-06-12T02:00:04.997Z,24.5
2017-06-12T02:02:04.727Z,24.5
2017-06-12T02:04:05.076Z,24.4
2017-06-12T02:06:04.777Z,24.5
2017-06-12T02:08:05.425Z,24.4
2017-06-12T02:10:04.721Z,24.4
2017-06-12T02:12:05.605Z,24.4
2017-06-12T02:14:05.273Z,24.4
2017-06-12T02:16:05.155Z,24.4
2017-06-12T02:18:07.574Z,24.4
2017-06-12T02:20:05.339Z,24.4
2017-06-12T02:22:05.298Z,24.3
2017-06-12T02:24:07.488Z,24.3
2017-06-12T02:26:05.155Z,24.3
2017-06-12T02:28:05.581Z,24.3
2017-06-12T02:30:10.419Z,24.3
2017-06-12T02:32:07.677Z,24.3
2017-06-12T02:34:05.762Z,24.3
2017-06-12T02:36:04.985Z,24.4
2017-06-12T02:38:04.650Z,24.3
2017-06-12T02:40:07.911Z,24.3
2017-06-12T02:42:05.611Z,24.3
2017-06-12T02:44:07.921Z,24.2
2017-06-12T02:46:10.765Z,24.2
2017-06-12T02:48:05.429Z,24.2
2017-06-12T02:50:05.081Z,24.3
2017-06-12T02:52:04.915Z,24.3
2017-06-12T02:54:07.132Z,24.2
2017-06-12T02:56:04.860Z,24.2
2017-06-12T02:58:05.587Z,24.2
2017-06-12T03:00:05.468Z,24.2
2017-06-12T03:02:05.173Z,24.2
2017-06-12T03:04:05.025Z,24.2
2017-06-12T03:06:04.713Z,24.2
2017-06-12T03:08:05.392Z,24.2
2017-06-12T03:10:05.184Z,24.2
2017-06-12T03:12:07.387Z,24.2
2017-06-12T03:14:05.130Z,24.2
2017-06-12T03:16:08.107Z,24.2
2017-06-12T03:18:05.039Z,24.2
2017-06-12T03:20:04.706Z,24.1
2017-06-12T03:22:08.140Z,24.1
2017-06-12T03:24:04.792Z,24.1
2017-06-12T03:26:10.548Z,24.1
2017-06-12T03:28:05.555Z,24.1
2017-06-12T03:30:07.764Z,24.1
2017-06-12T03:32:05.466Z,24.1
2017-06-12T03:34:05.174Z,24.1
2017-06-12T03:36:07.413Z,24.1
2017-06-12T03:38:05.149Z,24.1
2017-06-12T03:40:04.880Z,24.1
2017-06-12T03:42:05.572Z,24.1
2017-06-12T03:44:05.317Z,24.1
2017-06-12T03:46:05.101Z,24.1
2017-06-12T03:48:04.817Z,24
2017-06-12T03:50:13.161Z,24.1
2017-06-12T03:52:07.440Z,24
2017-06-12T03:54:05.142Z,24
2017-06-12T03:56:04.814Z,24
2017-06-12T03:58:05.662Z,24
2017-06-12T04:00:05.416Z,24
2017-06-12T04:02:05.130Z,24
2017-06-12T04:04:05.738Z,24
2017-06-12T04:06:05.440Z,24
2017-06-12T04:08:05.124Z,24
2017-06-12T04:10:05.103Z,24
2017-06-12T04:12:07.295Z,24
2017-06-12T04:14:10.082Z,24
2017-06-12T04:16:05.149Z,24
2017-06-12T04:18:05.120Z,24.1
2017-06-12T04:20:04.913Z,24
2017-06-12T04:22:10.745Z,24
2017-06-12T04:24:13.055Z,24.1
2017-06-12T04:26:07.302Z,24.1
2017-06-12T04:28:05.105Z,24
2017-06-12T04:30:04.852Z,24.1
2017-06-12T04:32:05.041Z,24.1
2017-06-12T04:34:04.943Z,24.1
2017-06-12T04:36:05.186Z,24.1
2017-06-12T04:38:04.879Z,24.1
2017-06-12T04:40:05.754Z,24.1
2017-06-12T04:42:05.519Z,24.1
2017-06-12T04:44:08.352Z,24.2
2017-06-12T04:46:05.573Z,24.1
2017-06-12T04:48:07.803Z,24.2
2017-06-12T04:50:05.625Z,24.2
2017-06-12T04:52:04.948Z,24.2
2017-06-12T04:54:07.129Z,24.2
2017-06-12T04:56:04.763Z,24.2
2017-06-12T04:58:08.036Z,24.2
2017-06-12T05:00:04.706Z,24.2
2017-06-12T05:02:05.400Z,24.2
2017-06-12T05:04:05.128Z,24.1
2017-06-12T05:06:04.936Z,24.1
2017-06-12T05:08:04.624Z,24.1
2017-06-12T05:10:07.828Z,24.1
2017-06-12T05:12:05.525Z,24.1
2017-06-12T05:14:05.325Z,24
2017-06-12T05:16:07.554Z,24
2017-06-12T05:18:05.414Z,23.9
2017-06-12T05:20:04.731Z,24
2017-06-12T05:22:05.367Z,24
2017-06-12T05:24:05.370Z,24
2017-06-12T05:26:06.438Z,24
2017-06-12T05:28:04.856Z,23.9
2017-06-12T05:30:04.989Z,23.9
2017-06-12T05:32:10.678Z,23.9
2017-06-12T05:34:10.040Z,23.9
2017-06-12T05:36:05.965Z,23.8
2017-06-12T05:38:10.114Z,23.8
2017-06-12T05:40:05.524Z,23.8
2017-06-12T05:42:07.258Z,23.8
2017-06-12T05:44:07.317Z,23.8
2017-06-12T05:46:05.325Z,23.8
2017-06-12T05:48:07.846Z,23.8
2017-06-12T05:50:07.742Z,23.8
2017-06-12T05:52:07.965Z,23.8
2017-06-12T05:54:09.647Z,23.8
2017-06-12T05:56:04.922Z,23.8
2017-06-12T05:58:05.845Z,23.8
2017-06-12T06:00:04.917Z,23.8
2017-06-12T06:02:04.863Z,23.7
2017-06-12T06:04:05.032Z,23.7
2017-06-12T06:06:09.784Z,23.7
2017-06-12T06:08:12.428Z,23.7
2017-06-12T06:10:15.107Z,23.7
2017-06-12T06:12:10.399Z,23.6
2017-06-12T06:14:06.258Z,23.7
2017-06-12T06:16:07.156Z,23.7
2017-06-12T06:18:09.033Z,23.7
2017-06-12T06:20:08.135Z,23.7
2017-06-12T06:22:04.704Z,23.7
2017-06-12T06:24:08.369Z,23.7
2017-06-12T06:26:07.199Z,23.7
2017-06-12T06:28:10.650Z,23.8
2017-06-12T06:30:10.532Z,23.7
2017-06-12T06:32:05.247Z,23.8
2017-06-12T06:34:07.473Z,23.8
2017-06-12T06:36:05.901Z,23.7
2017-06-12T06:38:04.985Z,23.8
2017-06-12T06:40:04.919Z,23.8
2017-06-12T06:42:10.307Z,23.7
2017-06-12T06:44:08.302Z,23.7
2017-06-12T06:46:05.393Z,23.7
2017-06-12T06:48:05.117Z,23.7
2017-06-12T06:50:05.784Z,23.8
2017-06-12T06:52:08.426Z,23.8
2017-06-12T06:54:06.249Z,23.7
2017-06-12T06:56:07.465Z,23.8
2017-06-12T06:58:04.926Z,23.8
2017-06-12T07:00:04.797Z,23.8
2017-06-12T07:02:06.062Z,23.8
2017-06-12T07:04:07.499Z,23.9
2017-06-12T07:06:04.931Z,23.8
2017-06-12T07:08:09.153Z,23.8
2017-06-12T07:10:12.505Z,23.8
2017-06-12T07:12:05.165Z,23.8
2017-06-12T07:14:04.867Z,23.8
2017-06-12T07:16:05.651Z,23.8
2017-06-12T07:18:08.050Z,23.8
2017-06-12T07:20:05.329Z,23.8
2017-06-12T07:22:05.087Z,23.8
2017-06-12T07:24:07.379Z,23.8
2017-06-12T07:26:07.648Z,23.9
2017-06-12T07:28:05.379Z,23.9
2017-06-12T07:30:05.626Z,23.9
2017-06-12T07:32:07.914Z,23.9
2017-06-12T07:34:07.690Z,23.9
2017-06-12T07:36:05.563Z,23.9
2017-06-12T07:38:07.881Z,23.8
2017-06-12T07:40:05.551Z,23.8
2017-06-12T07:42:07.730Z,23.8
2017-06-12T07:44:04.956Z,23.8
2017-06-12T07:46:07.382Z,23.8
2017-06-12T07:48:05.052Z,23.8
2017-06-12T07:50:04.849Z,23.8
2017-06-12T07:52:05.110Z,23.8
2017-06-12T07:54:07.395Z,24
2017-06-12T07:56:05.045Z,24
2017-06-12T07:58:22.298Z,24
2017-06-12T08:00:04.970Z,24
2017-06-12T08:02:04.795Z,24
2017-06-12T08:04:05.470Z,24
2017-06-12T08:06:05.146Z,24
2017-06-12T08:08:04.874Z,24
2017-06-12T08:10:05.850Z,24
2017-06-12T08:12:05.754Z,24
2017-06-12T08:14:08.208Z,24.1
2017-06-12T08:16:04.998Z,24.1
2017-06-12T08:18:06.291Z,24.1
2017-06-12T08:20:05.042Z,24.1
2017-06-12T08:22:05.359Z,24.1
2017-06-12T08:24:05.088Z,24.1
2017-06-12T08:26:12.307Z,24.2
2017-06-12T08:28:05.023Z,24.1
2017-06-12T08:30:05.584Z,24.1
2017-06-12T08:32:05.553Z,24.2
2017-06-12T08:34:04.818Z,24.2
2017-06-12T08:36:05.557Z,24.2
2017-06-12T08:38:04.820Z,24.2
2017-06-12T08:40:05.544Z,24.2
2017-06-12T08:42:05.663Z,24.2
2017-06-12T08:44:10.493Z,24.2
2017-06-12T08:46:06.199Z,24.2
2017-06-12T08:48:05.052Z,24.2
2017-06-12T08:50:04.933Z,24.2
2017-06-12T08:52:04.669Z,24.3
2017-06-12T08:54:05.596Z,24.3
2017-06-12T08:56:05.263Z,24.2
2017-06-12T08:58:04.955Z,24.2
2017-06-12T09:00:05.073Z,24.2
2017-06-12T09:02:12.322Z,24.2
2017-06-12T09:04:05.108Z,24.2
2017-06-12T09:06:04.945Z,24.2
2017-06-12T09:08:04.658Z,24.2
2017-06-12T09:10:05.472Z,24.2
2017-06-12T09:12:05.427Z,24.2
2017-06-12T09:14:05.136Z,24.2
2017-06-12T09:16:04.871Z,24.2
2017-06-12T09:18:05.152Z,24.2
2017-06-12T09:20:05.097Z,24.2
2017-06-12T09:22:05.088Z,24.2
2017-06-12T09:24:07.498Z,24.2
2017-06-12T09:26:07.791Z,24.2
2017-06-12T09:28:05.454Z,24.2
2017-06-12T09:30:05.325Z,24.2
2017-06-12T09:32:10.061Z,24.2
2017-06-12T09:34:05.275Z,24.3
2017-06-12T09:36:04.992Z,24.2
2017-06-12T09:38:07.405Z,24.3
2017-06-12T09:40:07.627Z,24.2
2017-06-12T09:42:05.471Z,24.3
2017-06-12T09:44:05.206Z,24.3
2017-06-12T09:46:07.439Z,24.2
2017-06-12T09:48:05.504Z,24.2
2017-06-12T09:50:07.732Z,24.1
2017-06-12T09:52:05.541Z,24.1
2017-06-12T09:54:04.942Z,24.1
2017-06-12T09:56:04.687Z,24.1
2017-06-12T09:58:04.893Z,24.1
2017-06-12T10:00:04.794Z,24.2
2017-06-12T10:02:05.521Z,24.2
2017-06-12T10:04:04.751Z,24.2
2017-06-12T10:06:05.614Z,24.2
2017-06-12T10:08:05.527Z,24.2
2017-06-12T10:10:05.637Z,24.2
2017-06-12T10:12:05.693Z,24.2
2017-06-12T10:14:07.459Z,24.1
2017-06-12T10:16:07.668Z,24.1
2017-06-12T10:18:05.688Z,24.1
2017-06-12T10:20:05.366Z,24.1
2017-06-12T10:22:05.037Z,24.1
2017-06-12T10:24:05.376Z,24.1
2017-06-12T10:26:05.291Z,24.1
2017-06-12T10:28:05.073Z,24.1
2017-06-12T10:30:04.936Z,24
2017-06-12T10:32:17.468Z,24
2017-06-12T10:34:05.176Z,24
2017-06-12T10:36:04.902Z,24.1
2017-06-12T10:38:04.596Z,24.1
2017-06-12T10:40:05.292Z,24
2017-06-12T10:42:05.034Z,24.1
2017-06-12T10:44:04.781Z,24
2017-06-12T10:46:05.505Z,24
2017-06-12T10:48:05.271Z,24
2017-06-12T10:50:04.994Z,24
2017-06-12T10:52:04.865Z,24
2017-06-12T10:54:05.525Z,24
2017-06-12T10:56:05.279Z,24
2017-06-12T10:58:05.010Z,24
2017-06-12T11:00:04.849Z,24
2017-06-12T11:02:05.510Z,24
2017-06-12T11:04:05.232Z,24
2017-06-12T11:06:12.479Z,24
2017-06-12T11:08:05.157Z,24
2017-06-12T11:10:07.721Z,24
2017-06-12T11:12:05.484Z,24
2017-06-12T11:14:05.334Z,24
2017-06-12T11:16:05.388Z,24
2017-06-12T11:18:05.331Z,24
2017-06-12T11:20:05.051Z,24
2017-06-12T11:22:04.763Z,24
2017-06-12T11:24:05.450Z,23.9
2017-06-12T11:26:05.145Z,24
2017-06-12T11:28:05.439Z,23.9
2017-06-12T11:30:05.063Z,23.9
2017-06-12T11:32:07.301Z,23.8
2017-06-12T11:34:05.725Z,23.9
2017-06-12T11:36:05.395Z,23.9
2017-06-12T11:38:05.119Z,23.8
2017-06-12T11:40:04.846Z,23.9
2017-06-12T11:42:05.540Z,23.9
2017-06-12T11:44:07.759Z,23.8
2017-06-12T11:46:05.605Z,23.9
2017-06-12T11:48:05.270Z,23.9
2017-06-12T11:50:04.992Z,23.8
2017-06-12T11:52:04.872Z,23.8
2017-06-12T11:54:05.570Z,23.8
2017-06-12T11:56:05.445Z,23.8
2017-06-12T11:58:07.767Z,23.8
2017-06-12T12:00:05.505Z,23.8
2017-06-12T12:02:09.865Z,23.8
2017-06-12T12:04:04.812Z,23.8
2017-06-12T12:06:05.511Z,23.8
2017-06-12T12:08:07.762Z,23.8
2017-06-12T12:10:08.159Z,23.8
2017-06-12T12:12:04.871Z,23.8
2017-06-12T12:14:05.588Z,23.8
2017-06-12T12:16:05.040Z,23.8
2017-06-12T12:18:04.921Z,23.8
2017-06-12T12:20:04.726Z,23.8
2017-06-12T12:22:05.816Z,23.8
2017-06-12T12:24:05.528Z,23.9
2017-06-12T12:26:05.239Z,23.8
2017-06-12T12:28:05.122Z,23.8
2017-06-12T12:30:07.373Z,23.8
2017-06-12T12:32:10.652Z,23.8
2017-06-12T12:34:10.759Z,23.8
2017-06-12T12:36:10.539Z,23.8
2017-06-12T12:38:05.259Z,23.8
2017-06-12T12:40:05.212Z,23.8
2017-06-12T12:42:04.924Z,23.8
2017-06-12T12:44:07.687Z,23.8
2017-06-12T12:46:05.512Z,23.7
2017-06-12T12:48:05.364Z,23.8
2017-06-12T12:50:05.124Z,23.8
2017-06-12T12:52:05.000Z,23.8
2017-06-12T12:54:04.735Z,23.8
2017-06-12T12:56:10.461Z,23.8
2017-06-12T12:58:07.856Z,23.7
2017-06-12T13:00:05.533Z,23.7
2017-06-12T13:02:10.281Z,23.7
2017-06-12T13:04:08.071Z,23.7
2017-06-12T13:06:05.279Z,23.7
2017-06-12T13:08:05.213Z,23.7
2017-06-12T13:10:05.761Z,23.7
2017-06-12T13:12:05.493Z,23.7
2017-06-12T13:14:05.186Z,23.7
2017-06-12T13:16:04.996Z,23.7
2017-06-12T13:18:07.903Z,23.7
2017-06-12T13:20:04.761Z,23.7
2017-06-12T13:22:05.592Z,23.7
2017-06-12T13:24:04.823Z,23.7
2017-06-12T13:26:06.046Z,23.7
2017-06-12T13:28:10.143Z,23.7
2017-06-12T13:30:07.328Z,23.7
2017-06-12T13:32:05.020Z,23.7
2017-06-12T13:34:07.792Z,23.7
2017-06-12T13:36:18.104Z,23.7
2017-06-12T13:38:09.909Z,23.7
2017-06-12T13:40:05.189Z,23.7
2017-06-12T13:42:04.923Z,23.7
2017-06-12T13:44:05.592Z,23.7
2017-06-12T13:46:05.467Z,23.7
2017-06-12T13:48:07.750Z,23.7
2017-06-12T13:50:08.035Z,23.7
2017-06-12T13:52:12.259Z,23.7
2017-06-12T13:54:05.005Z,23.7
2017-06-12T13:56:04.709Z,23.7
2017-06-12T13:58:05.525Z,23.7
2017-06-12T14:00:12.812Z,23.7
2017-06-12T14:02:05.489Z,23.7
2017-06-12T14:04:13.643Z,23.7
2017-06-12T14:06:05.365Z,23.7
2017-06-12T14:08:05.259Z,23.7
2017-06-12T14:10:04.924Z,23.7
2017-06-12T14:12:05.621Z,23.7
2017-06-12T14:14:05.288Z,23.7
2017-06-12T14:16:04.994Z,23.7
2017-06-12T14:18:04.930Z,23.7
2017-06-12T14:20:09.702Z,23.7
2017-06-12T14:22:05.390Z,23.7
2017-06-12T14:24:05.278Z,23.7
2017-06-12T14:26:05.226Z,23.7
2017-06-12T14:28:05.017Z,23.7
2017-06-12T14:30:14.816Z,23.7
2017-06-12T14:32:08.055Z,23.7
2017-06-12T14:34:04.771Z,23.7
2017-06-12T14:36:05.446Z,23.7
2017-06-12T14:38:05.166Z,23.7
2017-06-12T14:40:07.418Z,23.7
2017-06-12T14:42:04.691Z,23.7
2017-06-12T14:44:05.498Z,23.7
2017-06-12T14:46:15.336Z,23.7
2017-06-12T14:48:04.980Z,23.6
2017-06-12T14:50:05.726Z,23.6
2017-06-12T14:52:05.408Z,23.6
2017-06-12T14:54:05.175Z,23.6
2017-06-12T14:56:09.900Z,23.5
2017-06-12T14:58:05.642Z,23.5
2017-06-12T15:00:05.386Z,23.6
2017-06-12T15:02:05.085Z,23.6
2017-06-12T15:04:05.315Z,23.6
2017-06-12T15:06:04.995Z,23.6
2017-06-12T15:08:04.702Z,23.6
2017-06-12T15:10:05.436Z,23.6
2017-06-12T15:12:15.331Z,23.6
2017-06-12T15:14:05.105Z,23.7
2017-06-12T15:16:04.799Z,23.6
2017-06-12T15:18:04.689Z,23.6
2017-06-12T15:20:07.460Z,23.6
2017-06-12T15:22:08.216Z,23.6
2017-06-12T15:24:04.799Z,23.5
2017-06-12T15:26:05.491Z,23.5
2017-06-12T15:28:05.258Z,23.5
2017-06-12T15:30:06.075Z,23.6
2017-06-12T15:32:04.821Z,23.6
2017-06-12T15:34:05.530Z,23.6
2017-06-12T15:36:07.837Z,23.6
2017-06-12T15:38:13.143Z,23.6
2017-06-12T15:40:05.371Z,23.6
2017-06-12T15:42:05.055Z,23.6
2017-06-12T15:44:04.780Z,23.6
2017-06-12T15:46:07.971Z,23.6
2017-06-12T15:48:05.214Z,23.6
2017-06-12T15:50:05.029Z,23.6
2017-06-12T15:52:12.385Z,23.6
2017-06-12T15:54:05.205Z,23.6
2017-06-12T15:56:07.586Z,23.6
2017-06-12T15:58:04.924Z,23.6
2017-06-12T16:00:04.757Z,23.6
2017-06-12T16:02:05.543Z,23.6
2017-06-12T16:04:08.015Z,23.5
2017-06-12T16:06:04.714Z,23.5
2017-06-12T16:08:07.983Z,23.6
2017-06-12T16:10:09.720Z,23.6
2017-06-12T16:12:05.437Z,23.6
2017-06-12T16:14:05.258Z,23.6
2017-06-12T16:16:05.057Z,23.6
2017-06-12T16:18:05.149Z,23.6
2017-06-12T16:20:04.892Z,23.7
2017-06-12T16:22:05.207Z,23.6
2017-06-12T16:24:10.148Z,23.6
2017-06-12T16:26:07.916Z,23.6
2017-06-12T16:28:04.677Z,23.6
2017-06-12T16:30:05.445Z,23.6
2017-06-12T16:32:05.251Z,23.6
2017-06-12T16:34:05.043Z,23.6
2017-06-12T16:36:04.875Z,23.6
2017-06-12T16:38:07.217Z,23.6
2017-06-12T16:40:05.494Z,23.6
2017-06-12T16:42:07.794Z,23.6
2017-06-12T16:44:06.086Z,23.6
2017-06-12T16:46:04.815Z,23.6
2017-06-12T16:48:05.518Z,23.6
2017-06-12T16:50:07.307Z,23.6
2017-06-12T16:52:05.048Z,23.6
2017-06-12T16:54:07.435Z,23.6
2017-06-12T16:56:04.666Z,23.5
2017-06-12T16:58:05.439Z,23.6
2017-06-12T17:00:05.176Z,23.6
2017-06-12T17:02:07.427Z,23.6
2017-06-12T17:04:15.279Z,23.6
2017-06-12T17:06:04.941Z,23.6
2017-06-12T17:08:04.893Z,23.5
2017-06-12T17:10:08.140Z,23.6
2017-06-12T17:12:04.918Z,23.6
2017-06-12T17:14:05.310Z,23.6
2017-06-12T17:16:05.192Z,23.5
2017-06-12T17:18:05.070Z,23.5
2017-06-12T17:20:04.917Z,23.5
2017-06-12T17:22:09.867Z,23.5
2017-06-12T17:24:05.535Z,23.5
2017-06-12T17:26:05.357Z,23.5
2017-06-12T17:28:05.150Z,23.6
2017-06-12T17:30:05.113Z,23.6
2017-06-12T17:32:05.052Z,23.5
2017-06-12T17:34:04.759Z,23.4
2017-06-12T17:36:05.415Z,23.5
2017-06-12T17:38:04.645Z,23.5
2017-06-12T17:40:05.273Z,23.5
2017-06-12T17:42:07.791Z,23.5
2017-06-12T17:44:05.525Z,23.5
2017-06-12T17:46:05.270Z,23.5
2017-06-12T17:48:05.212Z,23.4
2017-06-12T17:50:05.218Z,23.4
2017-06-12T17:52:11.584Z,23.4
2017-06-12T17:54:07.360Z,23.5
2017-06-12T17:56:05.540Z,23.5
2017-06-12T17:58:08.075Z,23.4
2017-06-12T18:00:04.726Z,23.4
2017-06-12T18:02:04.966Z,23.4
2017-06-12T18:04:04.791Z,23.4
2017-06-12T18:06:07.580Z,23.4
2017-06-12T18:08:05.356Z,23.4
2017-06-12T18:10:05.071Z,23.4
2017-06-12T18:12:04.826Z,23.4
2017-06-12T18:14:10.734Z,23.4
2017-06-12T18:16:05.416Z,23.4
2017-06-12T18:18:04.834Z,23.4
2017-06-12T18:20:05.892Z,23.4
2017-06-12T18:22:05.406Z,23.4
2017-06-12T18:24:05.176Z,23.4
2017-06-12T18:26:07.523Z,23.4
2017-06-12T18:28:04.721Z,23.4
2017-06-12T18:30:08.001Z,23.4
2017-06-12T18:32:12.312Z,23.4
2017-06-12T18:34:04.630Z,23.4
2017-06-12T18:36:06.204Z,23.4
2017-06-12T18:38:05.412Z,23.4
2017-06-12T18:40:05.157Z,23.4
2017-06-12T18:42:04.911Z,23.4
2017-06-12T18:44:07.210Z,23.4
2017-06-12T18:46:04.926Z,23.3
2017-06-12T18:48:05.189Z,23.4
2017-06-12T18:50:04.936Z,23.4
2017-06-12T18:52:07.199Z,23.3
2017-06-12T18:54:04.940Z,23.3
2017-06-12T18:56:07.312Z,23.3
2017-06-12T18:58:05.618Z,23.3
2017-06-12T19:00:05.379Z,23.3
2017-06-12T19:02:05.273Z,23.3
2017-06-12T19:04:05.057Z,23.3
2017-06-12T19:06:04.912Z,23.3
2017-06-12T19:08:04.636Z,23.3
2017-06-12T19:10:05.316Z,23.3
2017-06-12T19:12:05.554Z,23.2
2017-06-12T19:14:05.260Z,23.2
2017-06-12T19:16:07.503Z,23.3
2017-06-12T19:18:07.966Z,23.2
2017-06-12T19:20:04.781Z,23.2
2017-06-12T19:22:05.792Z,23.2
2017-06-12T19:24:05.503Z,23.2
2017-06-12T19:26:12.520Z,23.2
2017-06-12T19:28:07.830Z,23.3
2017-06-12T19:30:05.520Z,23.3
2017-06-12T19:32:05.251Z,23.2
2017-06-12T19:34:04.978Z,23.2
2017-06-12T19:36:04.680Z,23.3
2017-06-12T19:38:05.583Z,23.3
2017-06-12T19:40:05.247Z,23.2
2017-06-12T19:42:04.913Z,23.2
2017-06-12T19:44:05.727Z,23.3
2017-06-12T19:46:07.979Z,23.2
2017-06-12T19:48:04.660Z,23.2
2017-06-12T19:50:05.367Z,23.3
2017-06-12T19:52:04.630Z,23.2
2017-06-12T19:54:07.582Z,23.2
2017-06-12T19:56:05.286Z,23.2
2017-06-12T19:58:05.024Z,23.3
2017-06-12T20:00:05.290Z,23.2
2017-06-12T20:02:10.021Z,23.2
2017-06-12T20:04:09.760Z,23.3
2017-06-12T20:06:05.488Z,23.3
2017-06-12T20:08:05.488Z,23.2
2017-06-12T20:10:05.584Z,23.2
2017-06-12T20:12:05.304Z,23.3
2017-06-12T20:14:07.547Z,23.2
2017-06-12T20:16:10.511Z,23.2
2017-06-12T20:18:05.449Z,23.2
2017-06-12T20:20:05.119Z,23.2
2017-06-12T20:22:05.159Z,23.2
2017-06-12T20:24:04.949Z,23.3
2017-06-12T20:26:04.697Z,23.2
2017-06-12T20:28:05.455Z,23.2
2017-06-12T20:30:05.174Z,23.2
2017-06-12T20:32:07.413Z,23.2
2017-06-12T20:34:05.109Z,23.3
2017-06-12T20:36:04.875Z,23.2
2017-06-12T20:38:05.069Z,23.2
2017-06-12T20:40:07.289Z,23.2
2017-06-12T20:42:05.885Z,23.2
2017-06-12T20:44:05.101Z,23.2
2017-06-12T20:46:04.851Z,23.2
2017-06-12T20:48:05.526Z,23.2
2017-06-12T20:50:07.768Z,23.1
2017-06-12T20:52:05.545Z,23.2
2017-06-12T20:54:05.442Z,23.2
2017-06-12T20:56:07.667Z,23.1
2017-06-12T20:58:05.468Z,23.1
2017-06-12T21:00:05.198Z,23.1
2017-06-12T21:02:05.419Z,23.1
2017-06-12T21:04:04.731Z,23.1
2017-06-12T21:06:05.398Z,23.1
2017-06-12T21:08:05.135Z,23.1
2017-06-12T21:10:07.481Z,23.1
2017-06-12T21:12:05.185Z,23.1
2017-06-12T21:14:04.901Z,23.1
2017-06-12T21:16:05.665Z,23.1
2017-06-12T21:18:05.543Z,23.1
2017-06-12T21:20:05.229Z,23.1
2017-06-12T21:22:05.957Z,23.1
2017-06-12T21:24:07.188Z,23
2017-06-12T21:26:04.857Z,23
2017-06-12T21:28:05.543Z,23
2017-06-12T21:30:07.817Z,23
2017-06-12T21:32:05.688Z,23
2017-06-12T21:34:05.370Z,23.1
2017-06-12T21:36:05.073Z,23.1
2017-06-12T21:38:04.758Z,23
2017-06-12T21:40:07.945Z,23
2017-06-12T21:42:04.671Z,23
2017-06-12T21:44:05.377Z,23
2017-06-12T21:46:05.228Z,23
2017-06-12T21:48:04.981Z,23
2017-06-12T21:50:04.688Z,23
2017-06-12T21:52:05.142Z,23.1
2017-06-12T21:54:09.851Z,23
2017-06-12T21:56:10.605Z,23
2017-06-12T21:58:05.310Z,23
2017-06-12T22:00:10.007Z,23
2017-06-12T22:02:04.960Z,23
2017-06-12T22:04:07.246Z,23
2017-06-12T22:06:04.928Z,23
2017-06-12T22:08:05.455Z,23
2017-06-12T22:10:10.231Z,23
2017-06-12T22:12:07.474Z,23
2017-06-12T22:14:10.256Z,23
2017-06-12T22:16:04.929Z,23
2017-06-12T22:18:04.817Z,23
2017-06-12T22:20:04.782Z,22.9
2017-06-12T22:22:05.484Z,22.9
2017-06-12T22:24:10.260Z,22.9
2017-06-12T22:26:04.950Z,22.9
2017-06-12T22:28:05.378Z,22.9
2017-06-12T22:30:11.125Z,22.9
2017-06-12T22:32:04.871Z,22.9
2017-06-12T22:34:07.627Z,22.9
2017-06-12T22:36:17.994Z,22.9
2017-06-12T22:38:04.642Z,22.9
2017-06-12T22:40:05.320Z,22.9
2017-06-12T22:42:05.088Z,22.9
2017-06-12T22:44:07.513Z,22.9
2017-06-12T22:46:04.970Z,22.9
2017-06-12T22:48:04.711Z,22.9
2017-06-12T22:50:05.114Z,22.9
2017-06-12T22:52:04.913Z,22.8
2017-06-12T22:54:04.737Z,22.8
2017-06-12T22:56:05.506Z,22.9
2017-06-12T22:58:07.790Z,22.9
2017-06-12T23:00:04.827Z,22.9
2017-06-12T23:02:05.530Z,22.8
2017-06-12T23:04:07.326Z,22.8
2017-06-12T23:06:07.699Z,22.8
2017-06-12T23:08:05.422Z,22.8
2017-06-12T23:10:04.925Z,22.8
2017-06-12T23:12:09.710Z,22.9
2017-06-12T23:14:05.681Z,22.9
2017-06-12T23:16:05.499Z,22.9
2017-06-12T23:18:05.433Z,22.9
2017-06-12T23:20:05.318Z,22.9
2017-06-12T23:22:07.750Z,22.9
2017-06-12T23:24:05.115Z,22.9
2017-06-12T23:26:05.029Z,22.9
2017-06-12T23:28:22.485Z,22.9
2017-06-12T23:30:05.308Z,22.9
2017-06-12T23:32:05.121Z,22.9
2017-06-12T23:34:04.984Z,22.9
2017-06-12T23:36:07.294Z,22.8
2017-06-12T23:38:05.211Z,22.8
2017-06-12T23:40:05.059Z,22.8
2017-06-12T23:42:04.798Z,22.8
2017-06-12T23:44:04.651Z,22.8
2017-06-12T23:46:05.401Z,22.8
2017-06-12T23:48:05.172Z,22.8
2017-06-12T23:50:05.441Z,22.9
2017-06-12T23:52:05.253Z,22.8
2017-06-12T23:54:07.972Z,22.8
2017-06-12T23:56:04.903Z,22.8
2017-06-12T23:58:04.963Z,22.8
